WetterOnline ( https://www.wetteronline.de )

Wetter aktuell Dagebüll

Aktuelles Wetter: List/Sylt (29m)

6-stündlich | Neueste Meldungen
Ortszeit Temperatur Wetter
Fr, 27.11. 7:00 5.6° C wolkenlos
Fr, 27.11. 1:00 7.3° C wolkenlos
Do, 26.11. 19:00 7.3° C wolkenlos
Do, 26.11. 13:00 10.5° C wolkig
Do, 26.11. 7:00 8.7° C bedeckt
Do, 26.11. 1:00 9.1° C bedeckt
Mi, 25.11. 19:00 8.3° C bedeckt
Mi, 25.11. 13:00 8.1° C bedeckt
Ortszeit Temperatur Wetter
Fr, 27.11. 10:00 4.9° C Nebel
Fr, 27.11. 9:50 4.9° C Nebel
Fr, 27.11. 9:40 4.7° C Nebel
Fr, 27.11. 9:30 4.8° C Nebel
Fr, 27.11. 9:20 4.8° C Nebel
Fr, 27.11. 9:10 4.8° C Nebel
Fr, 27.11. 9:00 5.3° C Nebel
Fr, 27.11. 8:30 4.7° C leicht bewölkt
Fr, 27.11. 8:00 4.8° C Nebel
Fr, 27.11. 7:30 5.1° C wolkenlos
Fr, 27.11. 7:00 5.6° C wolkenlos
Ortszeit Relative Feuchte Sichtweite
Fr, 27.11. 7:00 99% 18 km
Fr, 27.11. 1:00 91% 30 km
Do, 26.11. 19:00 85% 40 km
Do, 26.11. 13:00 72% 35 km
Do, 26.11. 7:00 96% 19 km
Do, 26.11. 1:00 93% 6 km
Mi, 25.11. 19:00 85% 13 km
Mi, 25.11. 13:00 88% 13 km
Ortszeit Relative Feuchte Sichtweite
Fr, 27.11. 10:00 98% 100 m
Fr, 27.11. 9:50 98% -
Fr, 27.11. 9:40 99% -
Fr, 27.11. 9:30 99% 0.2 km
Fr, 27.11. 9:20 99% -
Fr, 27.11. 9:10 99% -
Fr, 27.11. 9:00 99% 0.6 km
Fr, 27.11. 8:30 99% 7 km
Fr, 27.11. 8:00 99% 0.5 km
Fr, 27.11. 7:30 97% 1.0 km
Fr, 27.11. 7:00 99% 18 km
Ortszeit Niederschlagsmenge Niederschlagsart
Fr, 27.11. 7:00 0.0 l/m2 in 12 Std. -
Fr, 27.11. 1:00 0.0 l/m2 in 6 Std. -
Do, 26.11. 19:00 0.0 l/m2 in 12 Std. -
Do, 26.11. 13:00 0.0 l/m2 in 6 Std. -
Do, 26.11. 7:00 0.1 l/m2 in 12 Std. Regen
Do, 26.11. 1:00 0.0 l/m2 in 6 Std. -
Mi, 25.11. 19:00 0.0 l/m2 in 12 Std. -
Mi, 25.11. 13:00 0.0 l/m2 in 6 Std. -
Ortszeit Niederschlagsmenge Niederschlagsart
Fr, 27.11. 10:00 0.0 l/m2 in 1 Std. -
Fr, 27.11. 9:50 keine Meldung -
Fr, 27.11. 9:40 keine Meldung -
Fr, 27.11. 9:30 0.0 l/m2 in 1 Std. -
Fr, 27.11. 9:20 keine Meldung -
Fr, 27.11. 9:10 keine Meldung -
Fr, 27.11. 9:00 0.0 l/m2 in 1 Std. -
Fr, 27.11. 8:30 0.0 l/m2 in 1 Std. -
Fr, 27.11. 8:00 0.0 l/m2 in 1 Std. -
Fr, 27.11. 7:30 0.0 l/m2 in 1 Std. -
Fr, 27.11. 7:00 0.0 l/m2 in 1 Std. -
Ortszeit Stärke Spitze Richtung
km/h Bft. km/h Grad Sektor
Fr, 27.11. 7:00 7 2 18 120° SO
Fr, 27.11. 1:00 7 2 18 280° W
Do, 26.11. 19:00 13 3 30 290° W
Do, 26.11. 13:00 24 4 43 290° W
Do, 26.11. 7:00 33 5 44 320° NW
Do, 26.11. 1:00 22 4 46 210° SW
Mi, 25.11. 19:00 24 4 35 210° SW
Mi, 25.11. 13:00 22 4 47 200° S
Ortszeit Stärke Spitze Richtung
km/h Bft. km/h Grad Sektor
Fr, 27.11. 10:00 9 2 13 120° SO
Fr, 27.11. 9:50 9 2 - 120° SO
Fr, 27.11. 9:40 7 2 - 120° SO
Fr, 27.11. 9:30 7 2 11 120° SO
Fr, 27.11. 9:20 7 2 - 120° SO
Fr, 27.11. 9:10 9 2 - 120° SO
Fr, 27.11. 9:00 7 2 14 130° SO
Fr, 27.11. 8:30 13 3 17 100° O
Fr, 27.11. 8:00 13 3 19 90° O
Fr, 27.11. 7:30 11 2 18 60° NO
Fr, 27.11. 7:00 7 2 11 120° SO
Ortszeit Untergrenze Bedeckung Gattung
total tief tief mittel hoch
Fr, 27.11. 7:00 - 0/8 0/8 - - -
Fr, 27.11. 1:00 - 0/8 0/8 - - -
Do, 26.11. 19:00 - 0/8 0/8 - - -
Do, 26.11. 13:00 690 m 7/8 4/8 - - -
Do, 26.11. 7:00 180 m 8/8 8/8 - - -
Do, 26.11. 1:00 270 m 8/8 8/8 - - -
Mi, 25.11. 19:00 360 m 8/8 8/8 - - -
Mi, 25.11. 13:00 240 m 8/8 8/8 - - -
Ortszeit Bedeckungsgrad in Achtel und Wolkenuntergrenze
Fr, 27.11. 10:00 7(<30m)
Fr, 27.11. 9:50 7(<30m)
Fr, 27.11. 9:40 6(<30m)
Fr, 27.11. 9:30 5(<30m)
Fr, 27.11. 9:20 5(<30m)
Fr, 27.11. 9:10 5(<30m)
Fr, 27.11. 9:00 1(<30m)
Fr, 27.11. 8:30 2(<30m)
Fr, 27.11. 8:00 1(<30m)
Fr, 27.11. 7:30 keine Wolken
Fr, 27.11. 7:00 keine Wolken
Ortszeit Luftdruck NN (hPa) Tendenz (hPa in 3 Std.)
Fr, 27.11. 7:00 1021 + 0,4
Fr, 27.11. 1:00 1021 + 0,5
Do, 26.11. 19:00 1020 + 0,8
Do, 26.11. 13:00 1018 + 0,7
Do, 26.11. 7:00 1015 + 0,9
Do, 26.11. 1:00 1015 0,0
Mi, 25.11. 19:00 1015 + 0,3
Mi, 25.11. 13:00 1014 - 0,2
Ortszeit Luftdruck NN (hPa) Tendenz (hPa in 3 Std.)
Fr, 27.11. 10:00 1022 + 1,0
Fr, 27.11. 9:50 1022 keine Meldung
Fr, 27.11. 9:40 1022 keine Meldung
Fr, 27.11. 9:30 1022 + 0,9
Fr, 27.11. 9:20 1022 keine Meldung
Fr, 27.11. 9:10 1022 keine Meldung
Fr, 27.11. 9:00 1022 + 0,8
Fr, 27.11. 8:30 1022 + 0,9
Fr, 27.11. 8:00 1022 + 0,8
Fr, 27.11. 7:30 1021 + 0,6
Fr, 27.11. 7:00 1021 + 0,4
Ortszeit Schneehöhe (cm)
Fr, 27.11. 7:00 0
Fr, 27.11. 1:00 0
Do, 26.11. 19:00 0
Do, 26.11. 13:00 0
Do, 26.11. 7:00 0
Do, 26.11. 1:00 0
Mi, 25.11. 19:00 0
Mi, 25.11. 13:00 0
Ortszeit Schneehöhe (cm)
Fr, 27.11. 10:00 0
Fr, 27.11. 9:50 0
Fr, 27.11. 9:40 0
Fr, 27.11. 9:30 0
Fr, 27.11. 9:20 0
Fr, 27.11. 9:10 0
Fr, 27.11. 9:00 0
Fr, 27.11. 8:30 0
Fr, 27.11. 8:00 0
Fr, 27.11. 7:30 0
Fr, 27.11. 7:00 0
Link zu dieser Seite / Seite empfehlen

Das Wetter in ...